createdAt,value
2023-06-07T00:00:20.759Z,13.9
2023-06-07T00:01:21.366Z,11.4
2023-06-07T00:02:37.018Z,17.1
2023-06-07T00:03:23.794Z,12.2
2023-06-07T00:04:24.285Z,9.1
2023-06-07T00:05:24.839Z,11.1
2023-06-07T00:06:25.424Z,15.8
2023-06-07T00:07:26.026Z,9.9
2023-06-07T00:08:26.650Z,13.8
2023-06-07T00:09:27.271Z,9.1
2023-06-07T00:10:27.873Z,13.5
2023-06-07T00:11:28.492Z,10.3
2023-06-07T00:12:29.082Z,7.9
2023-06-07T00:13:29.704Z,13.4
2023-06-07T00:14:30.306Z,9.7
2023-06-07T00:15:30.910Z,12.6
2023-06-07T00:16:31.513Z,13.8
2023-06-07T00:17:32.162Z,10.8
2023-06-07T00:18:32.856Z,10.9
2023-06-07T00:19:33.383Z,16.6
2023-06-07T00:20:33.981Z,10.9
2023-06-07T00:21:34.581Z,12.4
2023-06-07T00:22:35.226Z,13.7
2023-06-07T00:23:35.857Z,15.2
2023-06-07T00:24:36.485Z,19.6
2023-06-07T00:25:37.077Z,9.7
2023-06-07T00:26:37.698Z,12.4
2023-06-07T00:27:38.299Z,12.2
2023-06-07T00:28:38.889Z,13.7
2023-06-07T00:29:39.518Z,9.8
2023-06-07T00:30:40.174Z,9.1
2023-06-07T00:31:40.796Z,11.6
2023-06-07T00:32:41.439Z,16.3
2023-06-07T00:33:42.021Z,12.7
2023-06-07T00:34:42.635Z,13.3
2023-06-07T00:35:43.257Z,9.8
2023-06-07T00:36:43.859Z,7.4
2023-06-07T00:37:44.466Z,13.1
2023-06-07T00:38:45.083Z,15.6
2023-06-07T00:39:45.688Z,11.8
2023-06-07T00:40:46.312Z,10.1
2023-06-07T00:41:46.914Z,12.2
2023-06-07T00:42:47.519Z,8.9
2023-06-07T00:43:48.116Z,9.6
2023-06-07T00:44:48.719Z,10.7
2023-06-07T00:45:49.321Z,12.5
2023-06-07T00:46:49.929Z,16.5
2023-06-07T00:47:50.618Z,13.6
2023-06-07T00:48:51.324Z,10.9
2023-06-07T00:49:51.922Z,9.8
2023-06-07T00:50:52.521Z,16.0
2023-06-07T00:51:53.121Z,15.6
2023-06-07T00:52:53.729Z,15.7
2023-06-07T00:53:54.328Z,9.6
2023-06-07T00:54:54.927Z,13.8
2023-06-07T00:55:55.534Z,13.9
2023-06-07T00:56:56.156Z,13.9
2023-06-07T00:57:56.779Z,16.4
2023-06-07T00:58:57.383Z,11.4
2023-06-07T00:59:57.984Z,13.5
2023-06-07T01:00:58.596Z,14.6
2023-06-07T01:01:59.222Z,14.9
2023-06-07T01:02:59.879Z,11.3
2023-06-07T01:04:00.542Z,13.9
2023-06-07T01:05:01.112Z,33.9
2023-06-07T01:06:01.721Z,13.9
2023-06-07T01:07:02.321Z,10.3
2023-06-07T01:08:02.924Z,10.7
2023-06-07T01:09:03.538Z,18.5
2023-06-07T01:10:04.295Z,15.0
2023-06-07T01:11:05.047Z,10.2
2023-06-07T01:12:05.673Z,14.1
2023-06-07T01:13:06.288Z,10.9
2023-06-07T01:14:06.873Z,11.4
2023-06-07T01:15:07.496Z,15.0
2023-06-07T01:16:08.111Z,12.2
2023-06-07T01:17:08.724Z,11.6
2023-06-07T01:18:09.357Z,9.7
2023-06-07T01:19:09.938Z,11.0
2023-06-07T01:20:10.610Z,16.0
2023-06-07T01:21:11.159Z,11.1
2023-06-07T01:22:11.765Z,15.0
2023-06-07T01:23:12.379Z,21.7
2023-06-07T01:24:13.333Z,12.2
2023-06-07T01:25:13.869Z,17.7
2023-06-07T01:26:14.436Z,10.1
2023-06-07T01:27:15.032Z,16.8
2023-06-07T01:28:15.646Z,15.8
2023-06-07T01:29:16.257Z,14.3
2023-06-07T01:30:16.870Z,15.5
2023-06-07T01:31:17.498Z,17.4
2023-06-07T01:32:18.167Z,13.9
2023-06-07T01:33:18.699Z,15.2
2023-06-07T01:34:19.354Z,9.4
2023-06-07T01:35:19.956Z,11.1
2023-06-07T01:36:20.570Z,14.3
2023-06-07T01:37:21.162Z,12.2
2023-06-07T01:38:21.777Z,15.1
2023-06-07T01:39:22.381Z,11.4
2023-06-07T01:40:22.986Z,13.6
2023-06-07T01:41:23.589Z,12.9
2023-06-07T01:42:24.190Z,11.5
2023-06-07T01:43:24.799Z,13.6
2023-06-07T01:44:25.397Z,13.4
2023-06-07T01:45:26.030Z,11.5
2023-06-07T01:46:26.717Z,13.6
2023-06-07T01:47:27.351Z,13.6
2023-06-07T01:48:27.936Z,14.0
2023-06-07T01:49:28.539Z,13.6
2023-06-07T01:50:29.159Z,11.0
2023-06-07T01:51:29.765Z,11.8
2023-06-07T01:52:30.371Z,13.9
2023-06-07T01:53:30.989Z,15.0
2023-06-07T01:54:31.577Z,13.6
2023-06-07T01:55:32.204Z,10.9
2023-06-07T01:56:32.823Z,12.0
2023-06-07T01:57:33.431Z,20.5
2023-06-07T01:58:34.032Z,14.5
2023-06-07T01:59:34.637Z,18.4
2023-06-07T02:00:35.245Z,12.1
2023-06-07T02:01:35.870Z,18.5
2023-06-07T02:02:36.487Z,14.6
2023-06-07T02:03:37.126Z,11.5
2023-06-07T02:04:37.701Z,15.0
2023-06-07T02:05:38.310Z,14.2
2023-06-07T02:06:38.908Z,13.9
2023-06-07T02:07:39.519Z,13.5
2023-06-07T02:08:40.131Z,15.6
2023-06-07T02:09:40.732Z,15.2
2023-06-07T02:10:41.335Z,22.1
2023-06-07T02:11:41.953Z,17.5
2023-06-07T02:12:42.562Z,19.0
2023-06-07T02:13:43.167Z,18.3
2023-06-07T02:14:43.770Z,12.5
2023-06-07T02:15:44.376Z,12.6
2023-06-07T02:16:45.028Z,13.4
2023-06-07T02:17:45.617Z,18.9
2023-06-07T02:18:46.209Z,10.7
2023-06-07T02:19:46.814Z,15.5
2023-06-07T02:20:47.413Z,11.8
2023-06-07T02:21:48.018Z,10.9
2023-06-07T02:22:48.624Z,14.5
2023-06-07T02:23:49.324Z,18.3
2023-06-07T02:24:49.923Z,21.1
2023-06-07T02:25:50.545Z,21.7
2023-06-07T02:26:51.151Z,14.3
2023-06-07T02:27:51.752Z,16.6
2023-06-07T02:28:52.354Z,24.9
2023-06-07T02:29:52.957Z,15.1
2023-06-07T02:30:53.584Z,11.8
2023-06-07T02:31:54.278Z,13.9
2023-06-07T02:32:55.085Z,12.2
2023-06-07T02:33:55.467Z,16.0
2023-06-07T02:34:56.071Z,17.0
2023-06-07T02:35:56.676Z,16.7
2023-06-07T02:36:57.304Z,15.2
2023-06-07T02:37:57.907Z,14.2
2023-06-07T02:38:58.509Z,17.1
2023-06-07T02:39:59.116Z,21.2
2023-06-07T02:40:59.718Z,23.9
2023-06-07T02:42:00.322Z,18.3
2023-06-07T02:43:00.935Z,13.1
2023-06-07T02:44:01.559Z,14.3
2023-06-07T02:45:02.158Z,16.2
2023-06-07T02:46:02.762Z,18.5
2023-06-07T02:47:03.439Z,15.2
2023-06-07T02:48:04.012Z,14.3
2023-06-07T02:49:04.593Z,15.0
2023-06-07T02:50:05.336Z,15.7
2023-06-07T02:51:06.003Z,17.3
2023-06-07T02:52:06.615Z,16.1
2023-06-07T02:53:07.352Z,18.3
2023-06-07T02:54:08.045Z,18.6
2023-06-07T02:55:08.641Z,13.6
2023-06-07T02:56:09.247Z,17.8
2023-06-07T02:57:09.855Z,14.9
2023-06-07T02:58:10.457Z,18.4
2023-06-07T02:59:11.107Z,14.9
2023-06-07T03:00:11.711Z,20.0
2023-06-07T03:01:12.316Z,15.3
2023-06-07T03:02:12.959Z,15.1
2023-06-07T03:03:13.790Z,14.5
2023-06-07T03:04:14.471Z,13.3
2023-06-07T03:05:15.096Z,14.0
2023-06-07T03:06:15.702Z,15.0
2023-06-07T03:07:16.307Z,14.2
2023-06-07T03:08:16.923Z,15.1
2023-06-07T03:09:17.549Z,16.5
2023-06-07T03:10:18.165Z,21.3
2023-06-07T03:11:19.103Z,17.3
2023-06-07T03:12:19.635Z,15.7
2023-06-07T03:13:20.253Z,16.4
2023-06-07T03:14:20.858Z,14.7
2023-06-07T03:15:21.486Z,18.7
2023-06-07T03:16:22.127Z,14.9
2023-06-07T03:17:22.706Z,14.2
2023-06-07T03:18:23.322Z,17.4
2023-06-07T03:19:23.919Z,13.3
2023-06-07T03:20:24.546Z,15.3
2023-06-07T03:21:25.154Z,14.4
2023-06-07T03:22:25.765Z,14.8
2023-06-07T03:23:26.660Z,15.6
2023-06-07T03:24:27.136Z,16.0
2023-06-07T03:25:27.759Z,16.6
2023-06-07T03:26:28.357Z,17.7
2023-06-07T03:27:28.974Z,16.1
2023-06-07T03:28:29.568Z,14.8
2023-06-07T03:29:30.182Z,16.9
2023-06-07T03:30:30.815Z,20.3
2023-06-07T03:31:31.433Z,21.3
2023-06-07T03:32:32.065Z,17.6
2023-06-07T03:33:32.656Z,22.7
2023-06-07T03:34:33.272Z,19.3
2023-06-07T03:35:33.901Z,20.7
2023-06-07T03:36:34.510Z,21.5
2023-06-07T03:37:35.130Z,25.2
2023-06-07T03:38:36.012Z,20.5
2023-06-07T03:39:36.537Z,18.6
2023-06-07T03:40:37.138Z,17.4
2023-06-07T03:41:37.748Z,25.1
2023-06-07T03:42:38.354Z,20.3
2023-06-07T03:43:38.963Z,22.9
2023-06-07T03:44:39.572Z,21.8
2023-06-07T03:45:40.178Z,19.7
2023-06-07T03:46:40.790Z,23.6
2023-06-07T03:47:41.491Z,17.6
2023-06-07T03:48:42.125Z,15.3
2023-06-07T03:49:42.710Z,18.3
2023-06-07T03:50:43.321Z,18.6
2023-06-07T03:51:43.921Z,18.9
2023-06-07T03:52:44.531Z,20.4
2023-06-07T03:53:45.134Z,25.3
2023-06-07T03:54:45.741Z,22.8
2023-06-07T03:55:46.349Z,22.3
2023-06-07T03:56:46.976Z,21.2
2023-06-07T03:57:47.558Z,19.0
2023-06-07T03:58:48.187Z,21.2
2023-06-07T03:59:48.808Z,19.3
2023-06-07T04:00:49.420Z,17.9
2023-06-07T04:01:50.033Z,30.8
2023-06-07T04:02:50.789Z,22.5
2023-06-07T04:03:51.538Z,23.3
2023-06-07T04:04:52.258Z,21.4
2023-06-07T04:05:52.834Z,26.4
2023-06-07T04:06:53.489Z,26.5
2023-06-07T04:07:54.097Z,23.8
2023-06-07T04:08:54.709Z,23.6
2023-06-07T04:09:55.306Z,18.2
2023-06-07T04:10:55.939Z,23.9
2023-06-07T04:11:56.526Z,20.3
2023-06-07T04:12:57.145Z,23.8
2023-06-07T04:13:57.743Z,21.3
2023-06-07T04:14:58.351Z,28.1
2023-06-07T04:15:58.973Z,26.2
2023-06-07T04:16:59.702Z,22.7
2023-06-07T04:18:00.334Z,24.8
2023-06-07T04:19:02.294Z,24.9
2023-06-07T04:20:02.536Z,23.4
2023-06-07T04:21:03.148Z,22.6
2023-06-07T04:22:03.777Z,26.8
2023-06-07T04:23:04.389Z,22.0
2023-06-07T04:24:05.063Z,25.9
2023-06-07T04:25:05.638Z,19.1
2023-06-07T04:26:06.263Z,28.3
2023-06-07T04:27:06.864Z,26.6
2023-06-07T04:28:07.470Z,23.6
2023-06-07T04:29:08.081Z,25.3
2023-06-07T04:30:08.697Z,22.7
2023-06-07T04:31:09.298Z,25.3
2023-06-07T04:32:10.001Z,23.7
2023-06-07T04:33:10.784Z,28.0
2023-06-07T04:34:11.487Z,27.7
2023-06-07T04:35:12.091Z,21.1
2023-06-07T04:36:12.728Z,20.7
2023-06-07T04:37:13.332Z,21.6
2023-06-07T04:38:13.963Z,21.5
2023-06-07T04:39:14.570Z,20.1
2023-06-07T04:40:15.185Z,26.7
2023-06-07T04:41:15.788Z,28.1
2023-06-07T04:42:16.431Z,24.4
2023-06-07T04:43:17.045Z,27.2
2023-06-07T04:44:17.650Z,20.9
2023-06-07T04:45:18.276Z,28.0
2023-06-07T04:46:18.933Z,23.5
2023-06-07T04:47:19.499Z,27.5
2023-06-07T04:48:20.132Z,29.5
2023-06-07T04:49:20.737Z,27.0
2023-06-07T04:50:21.350Z,21.8
2023-06-07T04:51:22.021Z,25.9
2023-06-07T04:52:22.599Z,22.2
2023-06-07T04:53:23.228Z,24.0
2023-06-07T04:54:23.847Z,25.3
2023-06-07T04:55:24.445Z,26.9
2023-06-07T04:56:25.060Z,23.8
2023-06-07T04:57:25.688Z,25.9
2023-06-07T04:58:26.315Z,21.6
2023-06-07T04:59:26.947Z,21.3
2023-06-07T05:00:27.553Z,21.6
2023-06-07T05:01:28.247Z,22.0
2023-06-07T05:02:28.868Z,24.2
2023-06-07T05:03:29.455Z,19.9
2023-06-07T05:04:30.061Z,21.9
2023-06-07T05:05:30.676Z,19.7
2023-06-07T05:06:31.281Z,26.4
2023-06-07T05:07:31.890Z,24.9
2023-06-07T05:08:32.520Z,18.3
2023-06-07T05:09:33.138Z,19.7
2023-06-07T05:10:33.728Z,24.5
2023-06-07T05:11:34.327Z,23.7
2023-06-07T05:12:34.936Z,24.2
2023-06-07T05:13:35.558Z,20.2
2023-06-07T05:14:36.168Z,21.0
2023-06-07T05:15:36.807Z,23.2
2023-06-07T05:16:37.419Z,29.8
2023-06-07T05:17:38.037Z,23.9
2023-06-07T05:18:38.633Z,23.9
2023-06-07T05:19:39.241Z,27.9
2023-06-07T05:20:39.866Z,20.2
2023-06-07T05:21:40.543Z,25.9
2023-06-07T05:22:41.149Z,25.9
2023-06-07T05:23:41.776Z,19.6
2023-06-07T05:24:42.379Z,26.5
2023-06-07T05:25:42.975Z,21.9
2023-06-07T05:26:43.609Z,25.8
2023-06-07T05:27:44.218Z,28.0
2023-06-07T05:28:44.842Z,26.9
2023-06-07T05:29:45.451Z,23.6
2023-06-07T05:30:46.064Z,20.5
2023-06-07T05:31:46.728Z,27.1
2023-06-07T05:32:47.393Z,27.4
2023-06-07T05:33:47.998Z,21.5
2023-06-07T05:34:48.606Z,26.5
2023-06-07T05:35:49.227Z,22.2
2023-06-07T05:36:49.823Z,25.4
2023-06-07T05:37:50.434Z,21.2
2023-06-07T05:38:51.053Z,25.0
2023-06-07T05:39:51.655Z,31.0
2023-06-07T05:40:52.280Z,29.4
2023-06-07T05:41:52.898Z,26.7
2023-06-07T05:42:53.498Z,28.0
2023-06-07T05:43:54.107Z,29.8
2023-06-07T05:44:54.717Z,35.2
2023-06-07T05:45:55.361Z,24.5
2023-06-07T05:46:55.973Z,26.5
2023-06-07T05:47:56.604Z,24.0
2023-06-07T05:48:57.174Z,27.7
2023-06-07T05:49:57.784Z,27.7
2023-06-07T05:50:58.408Z,24.7
2023-06-07T05:51:59.002Z,28.1
2023-06-07T05:52:59.609Z,23.6
2023-06-07T05:54:00.264Z,25.7
2023-06-07T05:55:00.831Z,25.5
2023-06-07T05:56:01.440Z,27.4
2023-06-07T05:57:02.050Z,25.5
2023-06-07T05:58:02.690Z,25.8
2023-06-07T05:59:03.287Z,28.1
2023-06-07T06:00:04.118Z,26.6
2023-06-07T06:01:04.922Z,23.9
2023-06-07T06:02:05.593Z,28.0
2023-06-07T06:03:06.192Z,24.7
2023-06-07T06:04:06.763Z,25.3
2023-06-07T06:05:07.501Z,29.7
2023-06-07T06:06:08.002Z,20.1
2023-06-07T06:07:08.613Z,28.0
2023-06-07T06:08:09.237Z,31.0
2023-06-07T06:09:09.849Z,24.5
2023-06-07T06:10:10.457Z,29.5
2023-06-07T06:11:11.066Z,22.7
2023-06-07T06:12:11.678Z,22.1
2023-06-07T06:13:12.362Z,23.3
2023-06-07T06:14:12.914Z,23.5
2023-06-07T06:15:13.585Z,29.4
2023-06-07T06:16:14.199Z,28.1
2023-06-07T06:17:14.898Z,26.2
2023-06-07T06:18:15.812Z,28.4
2023-06-07T06:19:16.335Z,27.2
2023-06-07T06:20:16.945Z,27.2
2023-06-07T06:21:17.552Z,27.4
2023-06-07T06:22:18.163Z,27.2
2023-06-07T06:23:18.772Z,21.9
2023-06-07T06:24:19.476Z,27.5
2023-06-07T06:25:20.108Z,25.5
2023-06-07T06:26:20.701Z,26.2
2023-06-07T06:27:21.359Z,33.9
2023-06-07T06:28:21.920Z,25.8
2023-06-07T06:29:22.551Z,22.5
2023-06-07T06:30:23.180Z,25.5
2023-06-07T06:31:23.902Z,26.3
2023-06-07T06:32:24.508Z,23.0
2023-06-07T06:33:25.083Z,16.8
2023-06-07T06:34:25.685Z,28.1
2023-06-07T06:35:26.297Z,24.4
2023-06-07T06:36:26.907Z,23.9
2023-06-07T06:37:27.516Z,22.7
2023-06-07T06:38:28.126Z,26.5
2023-06-07T06:39:28.754Z,23.5
2023-06-07T06:40:29.386Z,25.6
2023-06-07T06:41:29.980Z,22.0
2023-06-07T06:42:30.589Z,29.6
2023-06-07T06:43:31.207Z,22.4
2023-06-07T06:44:31.811Z,22.7
2023-06-07T06:45:32.443Z,22.2
2023-06-07T06:46:33.067Z,23.9
2023-06-07T06:47:33.681Z,22.8
2023-06-07T06:48:34.290Z,19.4
2023-06-07T06:49:34.917Z,22.3
2023-06-07T06:50:35.899Z,19.2
2023-06-07T06:51:36.659Z,20.8
2023-06-07T06:52:37.276Z,21.7
2023-06-07T06:53:37.892Z,26.8
2023-06-07T06:54:38.529Z,21.8
2023-06-07T06:55:39.163Z,18.5
2023-06-07T06:56:39.938Z,25.3
2023-06-07T06:57:40.870Z,23.1
2023-06-07T06:58:41.393Z,21.4
2023-06-07T06:59:42.008Z,25.5
2023-06-07T07:00:42.611Z,22.9
2023-06-07T07:01:43.295Z,20.3
2023-06-07T07:02:43.884Z,22.9
2023-06-07T07:03:44.499Z,23.0
2023-06-07T07:04:45.113Z,23.4
2023-06-07T07:05:45.697Z,29.7
2023-06-07T07:06:46.300Z,26.2
2023-06-07T07:07:46.921Z,23.1
2023-06-07T07:08:47.523Z,21.4
2023-06-07T07:09:48.131Z,19.7
2023-06-07T07:10:48.737Z,20.5
2023-06-07T07:11:49.369Z,24.2
2023-06-07T07:12:49.999Z,20.3
2023-06-07T07:13:50.607Z,23.1
2023-06-07T07:14:51.225Z,22.8
2023-06-07T07:15:51.852Z,25.7
2023-06-07T07:16:52.486Z,23.6
2023-06-07T07:17:53.147Z,24.3
2023-06-07T07:18:53.712Z,22.7
2023-06-07T07:19:54.339Z,22.9
2023-06-07T07:20:54.949Z,24.4
2023-06-07T07:21:55.567Z,21.7
2023-06-07T07:22:56.203Z,24.2
2023-06-07T07:23:56.910Z,18.9
2023-06-07T07:24:57.438Z,20.0
2023-06-07T07:25:58.050Z,21.0
2023-06-07T07:26:58.661Z,21.2
2023-06-07T07:27:59.273Z,18.8
2023-06-07T07:28:59.882Z,24.0
2023-06-07T07:30:00.500Z,24.1
2023-06-07T07:31:01.130Z,20.4
2023-06-07T07:32:01.741Z,14.9
2023-06-07T07:33:02.411Z,19.3
2023-06-07T07:34:02.990Z,23.3
2023-06-07T07:35:03.669Z,22.1
2023-06-07T07:36:04.269Z,19.6
2023-06-07T07:37:04.878Z,22.6
2023-06-07T07:38:05.491Z,21.5
2023-06-07T07:39:06.102Z,18.2
2023-06-07T07:40:07.163Z,22.2
2023-06-07T07:41:08.044Z,24.3
2023-06-07T07:42:08.571Z,14.7
2023-06-07T07:43:09.197Z,17.3
2023-06-07T07:44:09.811Z,21.6
2023-06-07T07:45:10.431Z,16.0
2023-06-07T07:46:11.119Z,22.6
2023-06-07T07:47:11.725Z,21.7
2023-06-07T07:48:12.407Z,23.5
2023-06-07T07:49:12.967Z,21.1
2023-06-07T07:50:13.616Z,23.4
2023-06-07T07:51:14.190Z,20.2
2023-06-07T07:52:14.823Z,23.7
2023-06-07T07:53:15.430Z,20.6
2023-06-07T07:54:16.042Z,16.5
2023-06-07T07:55:16.674Z,20.5
2023-06-07T07:56:17.283Z,20.4
2023-06-07T07:57:17.898Z,21.6
2023-06-07T07:58:18.518Z,22.4
2023-06-07T07:59:19.116Z,22.8
2023-06-07T08:00:19.723Z,19.6
2023-06-07T08:01:20.338Z,24.0
2023-06-07T08:02:20.989Z,17.5
2023-06-07T08:03:21.729Z,24.0
2023-06-07T08:04:22.343Z,25.1
2023-06-07T08:05:22.955Z,20.9
2023-06-07T08:06:23.580Z,20.1
2023-06-07T08:07:24.172Z,23.7
2023-06-07T08:08:24.785Z,18.4
2023-06-07T08:09:25.394Z,19.7
2023-06-07T08:10:26.006Z,18.3
2023-06-07T08:11:26.633Z,21.1
2023-06-07T08:12:27.246Z,21.6
2023-06-07T08:13:27.853Z,22.3
2023-06-07T08:14:28.461Z,14.3
2023-06-07T08:15:29.075Z,19.3
2023-06-07T08:16:29.759Z,20.8
2023-06-07T08:17:30.323Z,22.6
2023-06-07T08:18:30.933Z,18.7
2023-06-07T08:19:31.558Z,18.3
2023-06-07T08:20:32.171Z,25.0
2023-06-07T08:21:32.795Z,22.7
2023-06-07T08:22:33.418Z,13.9
2023-06-07T08:23:34.064Z,21.1
2023-06-07T08:24:34.720Z,17.7
2023-06-07T08:25:35.347Z,20.4
2023-06-07T08:26:36.001Z,15.2
2023-06-07T08:27:36.623Z,21.2
2023-06-07T08:28:37.233Z,18.3
2023-06-07T08:29:37.861Z,19.9
2023-06-07T08:30:38.452Z,23.0
2023-06-07T08:31:39.090Z,18.3
2023-06-07T08:32:39.720Z,19.5
2023-06-07T08:33:40.334Z,21.1
2023-06-07T08:34:40.938Z,16.3
2023-06-07T08:35:41.529Z,16.0
2023-06-07T08:36:42.136Z,19.0
2023-06-07T08:37:42.746Z,17.4
2023-06-07T08:38:43.357Z,15.8
2023-06-07T08:39:43.998Z,20.7
2023-06-07T08:40:44.601Z,22.3
2023-06-07T08:41:45.212Z,15.5
2023-06-07T08:42:45.819Z,19.4
2023-06-07T08:43:46.433Z,14.7
2023-06-07T08:44:47.043Z,17.0
2023-06-07T08:45:47.708Z,20.7
2023-06-07T08:46:48.268Z,21.7
2023-06-07T08:47:48.937Z,18.6
2023-06-07T08:48:49.580Z,17.5
2023-06-07T08:49:50.190Z,19.7
2023-06-07T08:50:50.803Z,19.9
2023-06-07T08:52:03.163Z,19.4
2023-06-07T08:52:53.019Z,17.8
2023-06-07T08:53:53.630Z,21.5
2023-06-07T08:54:54.266Z,19.4
2023-06-07T08:55:54.880Z,16.5
2023-06-07T08:56:55.544Z,21.3
2023-06-07T08:57:56.092Z,24.2
2023-06-07T08:58:56.701Z,20.7
2023-06-07T08:59:57.315Z,21.0
2023-06-07T09:00:57.968Z,15.3
2023-06-07T09:01:58.591Z,21.7
2023-06-07T09:02:59.285Z,18.3
2023-06-07T09:04:00.042Z,17.1
2023-06-07T09:05:00.718Z,15.5
2023-06-07T09:06:01.355Z,15.5
2023-06-07T09:07:01.985Z,14.6
2023-06-07T09:08:02.596Z,24.2
2023-06-07T09:09:03.206Z,16.1
2023-06-07T09:10:04.132Z,18.6
2023-06-07T09:11:04.448Z,18.0
2023-06-07T09:12:05.072Z,19.0
2023-06-07T09:13:05.674Z,14.8
2023-06-07T09:14:06.295Z,21.3
2023-06-07T09:15:06.907Z,20.1
2023-06-07T09:16:07.523Z,18.0
2023-06-07T09:17:08.211Z,16.5
2023-06-07T09:18:09.056Z,13.2
2023-06-07T09:19:09.696Z,20.4
2023-06-07T09:20:10.311Z,15.4
2023-06-07T09:21:10.916Z,18.2
2023-06-07T09:22:11.550Z,13.0
2023-06-07T09:23:12.178Z,15.5
2023-06-07T09:24:12.879Z,20.5
2023-06-07T09:25:13.497Z,17.0
2023-06-07T09:26:14.147Z,14.9
2023-06-07T09:27:14.933Z,10.3
2023-06-07T09:28:15.459Z,15.4
2023-06-07T09:29:16.088Z,19.1
2023-06-07T09:30:16.720Z,15.2
2023-06-07T09:31:17.405Z,17.0
2023-06-07T09:32:18.042Z,15.2
2023-06-07T09:33:18.705Z,13.9
2023-06-07T09:34:19.316Z,13.3
2023-06-07T09:35:19.972Z,15.8
2023-06-07T09:36:20.593Z,19.0
2023-06-07T09:37:21.187Z,16.0
2023-06-07T09:38:21.799Z,16.3
2023-06-07T09:39:22.400Z,15.5
2023-06-07T09:40:23.030Z,14.7
2023-06-07T09:41:23.639Z,16.2
2023-06-07T09:42:24.314Z,14.5
2023-06-07T09:43:24.869Z,18.0
2023-06-07T09:44:25.496Z,19.1
2023-06-07T09:45:26.090Z,15.5
2023-06-07T09:46:26.845Z,14.0
2023-06-07T09:47:27.693Z,13.9
2023-06-07T09:48:28.505Z,26.2
2023-06-07T09:49:29.220Z,13.7
2023-06-07T09:50:29.798Z,12.0
2023-06-07T09:51:30.438Z,20.4
2023-06-07T09:52:31.113Z,15.5
2023-06-07T09:53:31.678Z,15.9
2023-06-07T09:54:32.321Z,19.4
2023-06-07T09:55:32.922Z,18.4
2023-06-07T09:56:33.567Z,15.3
2023-06-07T09:57:34.184Z,10.7
2023-06-07T09:58:34.782Z,17.3
2023-06-07T09:59:35.400Z,15.4
2023-06-07T10:00:36.058Z,18.2
2023-06-07T10:01:36.750Z,9.8
2023-06-07T10:02:37.417Z,15.6
2023-06-07T10:03:38.096Z,16.1
2023-06-07T10:04:38.977Z,14.5
2023-06-07T10:05:39.619Z,14.6
2023-06-07T10:06:40.201Z,11.9
2023-06-07T10:07:40.899Z,18.3
2023-06-07T10:08:41.477Z,12.0
2023-06-07T10:09:42.113Z,17.2
2023-06-07T10:10:42.687Z,15.7
2023-06-07T10:11:43.307Z,16.4
2023-06-07T10:12:44.033Z,17.4
2023-06-07T10:13:44.555Z,16.8
2023-06-07T10:14:45.213Z,17.3
2023-06-07T10:15:45.857Z,13.9
2023-06-07T10:16:46.590Z,11.6
2023-06-07T10:17:47.303Z,18.0
2023-06-07T10:18:47.824Z,15.2
2023-06-07T10:19:48.435Z,20.8
2023-06-07T10:20:49.056Z,13.0
2023-06-07T10:21:49.669Z,11.9
2023-06-07T10:22:50.330Z,13.4
2023-06-07T10:23:51.094Z,17.2
2023-06-07T10:24:51.868Z,15.8
2023-06-07T10:25:52.482Z,13.8
2023-06-07T10:26:53.099Z,18.0
2023-06-07T10:27:53.734Z,16.3
2023-06-07T10:28:54.390Z,32.5
2023-06-07T10:29:54.985Z,20.1
2023-06-07T10:30:55.601Z,18.3
2023-06-07T10:31:56.369Z,18.0
2023-06-07T10:32:57.064Z,16.5
2023-06-07T10:33:57.634Z,21.6
2023-06-07T10:34:58.261Z,14.2
2023-06-07T10:35:58.872Z,14.4
2023-06-07T10:36:59.518Z,12.5
2023-06-07T10:38:00.111Z,17.3
2023-06-07T10:39:00.768Z,20.2
2023-06-07T10:40:01.411Z,16.2
2023-06-07T10:41:02.003Z,17.5
2023-06-07T10:42:02.613Z,16.3
2023-06-07T10:43:03.237Z,17.7
2023-06-07T10:44:03.842Z,16.0
2023-06-07T10:45:04.451Z,14.0
2023-06-07T10:46:05.123Z,17.4
2023-06-07T10:47:05.802Z,18.2
2023-06-07T10:48:06.423Z,19.3
2023-06-07T10:49:07.013Z,21.7
2023-06-07T10:50:08.213Z,13.4
2023-06-07T10:51:08.312Z,18.2
2023-06-07T10:52:09.080Z,14.1
2023-06-07T10:53:09.952Z,19.4
2023-06-07T10:54:11.152Z,15.9
2023-06-07T10:55:11.802Z,17.9
2023-06-07T10:56:12.414Z,14.6
2023-06-07T10:57:13.021Z,14.7
2023-06-07T10:58:13.675Z,13.1
2023-06-07T10:59:14.443Z,14.8
2023-06-07T11:00:17.119Z,16.4
2023-06-07T11:01:16.805Z,14.2
2023-06-07T11:02:17.494Z,16.3
2023-06-07T11:03:18.087Z,13.4
2023-06-07T11:04:19.028Z,13.2
2023-06-07T11:05:19.555Z,14.3
2023-06-07T11:06:20.155Z,10.9
2023-06-07T11:07:20.947Z,15.4
2023-06-07T11:08:21.692Z,13.8
2023-06-07T11:09:22.356Z,16.8
2023-06-07T11:10:22.950Z,24.7
2023-06-07T11:11:25.039Z,16.0
2023-06-07T11:12:25.172Z,13.5
2023-06-07T11:13:25.810Z,15.3
2023-06-07T11:14:26.403Z,11.8
2023-06-07T11:15:27.012Z,15.0
2023-06-07T11:16:27.712Z,18.0
2023-06-07T11:17:28.288Z,18.4
2023-06-07T11:18:28.996Z,16.2
2023-06-07T11:19:29.512Z,17.7
2023-06-07T11:20:30.134Z,15.1
2023-06-07T11:21:30.731Z,14.8
2023-06-07T11:22:31.344Z,15.5
2023-06-07T11:23:32.113Z,12.1
2023-06-07T11:24:32.946Z,17.3
2023-06-07T11:25:33.696Z,17.0
2023-06-07T11:26:34.306Z,19.5
2023-06-07T11:27:34.925Z,15.3
2023-06-07T11:28:35.587Z,11.9
2023-06-07T11:29:36.185Z,13.7
2023-06-07T11:30:36.876Z,15.6
2023-06-07T11:31:37.465Z,12.1
2023-06-07T11:32:38.096Z,14.8
2023-06-07T11:33:38.723Z,15.1
2023-06-07T11:34:39.335Z,14.4
2023-06-07T11:35:39.925Z,15.8
2023-06-07T11:36:40.535Z,18.9
2023-06-07T11:37:41.144Z,14.8
2023-06-07T11:38:41.764Z,19.5
2023-06-07T11:39:42.390Z,13.6
2023-06-07T11:40:42.997Z,16.7
2023-06-07T11:41:45.217Z,21.8
2023-06-07T11:42:45.209Z,16.7
2023-06-07T11:43:45.943Z,14.8
2023-06-07T11:44:46.458Z,14.8
2023-06-07T11:45:47.093Z,16.5
2023-06-07T11:46:47.788Z,18.2
2023-06-07T11:47:49.252Z,13.3
2023-06-07T11:48:49.109Z,20.6
2023-06-07T11:49:49.731Z,15.2
2023-06-07T11:50:50.346Z,22.7
2023-06-07T11:51:50.972Z,22.2
2023-06-07T11:52:51.584Z,12.8
2023-06-07T11:53:52.213Z,20.4
2023-06-07T11:54:52.823Z,21.4
2023-06-07T11:55:53.433Z,17.1
2023-06-07T11:56:54.048Z,14.8
2023-06-07T11:57:54.726Z,18.6
2023-06-07T11:58:55.299Z,18.0
2023-06-07T11:59:56.001Z,16.4
2023-06-07T12:00:56.537Z,18.0
2023-06-07T12:01:57.226Z,12.7
2023-06-07T12:02:57.910Z,15.8
2023-06-07T12:03:58.489Z,12.6
2023-06-07T12:04:59.055Z,18.5
2023-06-07T12:05:59.688Z,11.3
2023-06-07T12:07:00.300Z,18.3
2023-06-07T12:08:00.906Z,13.2
2023-06-07T12:09:01.519Z,17.9
2023-06-07T12:10:02.205Z,12.8
2023-06-07T12:11:02.771Z,13.6
2023-06-07T12:12:03.384Z,19.1
2023-06-07T12:13:04.018Z,14.4
2023-06-07T12:14:04.655Z,18.1
2023-06-07T12:15:05.239Z,16.2
2023-06-07T12:16:05.926Z,12.3
2023-06-07T12:17:06.494Z,13.9
2023-06-07T12:18:07.193Z,13.8
2023-06-07T12:19:07.765Z,13.3
2023-06-07T12:20:08.387Z,14.6
2023-06-07T12:21:09.003Z,10.4
2023-06-07T12:22:09.615Z,18.1
2023-06-07T12:23:10.222Z,16.0
2023-06-07T12:24:10.933Z,16.6
2023-06-07T12:25:11.514Z,10.6
2023-06-07T12:26:12.141Z,13.7
2023-06-07T12:27:12.767Z,12.6
2023-06-07T12:28:13.518Z,19.7
2023-06-07T12:29:14.095Z,15.8
2023-06-07T12:30:14.653Z,15.7
2023-06-07T12:31:15.295Z,16.3
2023-06-07T12:32:15.873Z,15.8
2023-06-07T12:33:16.583Z,15.4
2023-06-07T12:34:17.232Z,16.6
2023-06-07T12:35:17.841Z,15.1
2023-06-07T12:36:18.451Z,18.7
2023-06-07T12:37:19.088Z,15.6
2023-06-07T12:38:19.693Z,14.0
2023-06-07T12:39:20.304Z,14.2
2023-06-07T12:40:20.931Z,15.5
2023-06-07T12:41:21.529Z,13.7
2023-06-07T12:42:22.177Z,15.5
2023-06-07T12:43:22.768Z,20.2
2023-06-07T12:44:23.378Z,17.1
2023-06-07T12:45:23.990Z,13.1
2023-06-07T12:46:24.630Z,12.8
2023-06-07T12:47:25.289Z,12.2
2023-06-07T12:48:25.864Z,16.0
2023-06-07T12:49:26.531Z,17.3
2023-06-07T12:50:27.101Z,13.1
2023-06-07T12:51:27.730Z,8.8
2023-06-07T12:52:28.337Z,18.1
2023-06-07T12:53:31.463Z,13.1
2023-06-07T12:54:30.553Z,10.5
2023-06-07T12:55:31.164Z,13.7
2023-06-07T12:56:31.785Z,13.7
2023-06-07T12:57:32.383Z,19.7
2023-06-07T12:58:32.996Z,13.8
2023-06-07T12:59:33.624Z,15.6
2023-06-07T13:00:34.237Z,18.2
2023-06-07T13:01:34.949Z,13.7
2023-06-07T13:02:35.837Z,15.5
2023-06-07T13:03:36.591Z,14.8
2023-06-07T13:04:37.196Z,16.7
2023-06-07T13:05:37.809Z,17.5
2023-06-07T13:06:38.451Z,13.3
2023-06-07T13:07:39.054Z,12.1
2023-06-07T13:08:39.680Z,15.7
2023-06-07T13:09:40.274Z,10.5
2023-06-07T13:10:40.884Z,17.9
2023-06-07T13:11:41.498Z,13.0
2023-06-07T13:12:42.108Z,13.0
2023-06-07T13:13:42.717Z,15.8
2023-06-07T13:14:43.332Z,11.7
2023-06-07T13:15:43.938Z,12.6
2023-06-07T13:16:44.663Z,10.7
2023-06-07T13:17:45.599Z,15.0
2023-06-07T13:18:46.300Z,13.4
2023-06-07T13:19:46.917Z,10.7
2023-06-07T13:20:47.543Z,12.8
2023-06-07T13:21:48.143Z,11.9
2023-06-07T13:22:48.748Z,13.0
2023-06-07T13:23:49.426Z,13.9
2023-06-07T13:24:50.048Z,10.0
2023-06-07T13:25:50.659Z,15.5
2023-06-07T13:26:51.272Z,12.4
2023-06-07T13:27:51.884Z,14.0